Latest Coastal Weather Observations for Eucla

IDW60701

Issued at 3:22 pm WST Sunday 31 July 2016 (issued every 10 minutes, with the page automatically refreshed every 10 minutes)

About coastal observations | Map of coastal stations | Coastal observations for WA | Marine services | Other Formats
Station Details ID: 011003 Name: EUCLA Lat: -31.68 Lon: 128.90 Height: 93.1 m
Data from the previous 72 hours. | See also: Recent months at Eucla
Date/Time
WST
Temp
°C
Wind Pressure Rain since
9am
mm
Weather Cloud Vis
km
Sea
Height
m
Swell
Dir  Spd
kts
Gust
kts
hPa Trend Height
m
Period
s
Dir
31/03:00pm 17.6 SSW 9 15 1011.3 - 0.0 Fine Mostly clear 40 - - - -
31/02:30pm 18.1 SSW 9 14 1011.2 - 0.0 - - - - - - -
31/02:00pm 18.7 SSE 7 11 1010.9 - 0.0 - - - - - - -
31/01:30pm 19.2 SSW 6 10 1010.9 - 0.0 - - - - - - -
31/01:00pm 20.1 SW 7 10 1010.9 - 0.0 - - - - - - -
31/12:30pm 21.7 W 10 17 1011.2 - 0.0 - - - - - - -
31/12:00pm 22.2 W 10 15 1011.6 - 0.0 - - - - - - -
31/11:30am 21.3 W 7 13 1012.1 - 0.0 - - - - - - -
31/11:00am 20.6 W 9 14 1012.6 - 0.0 - - - - - - -
31/10:30am 20.1 WSW 8 14 1013.4 - 0.0 - - - - - - -
31/10:00am 20.1 WSW 9 15 1013.7 - 0.0 - - - - - - -
31/09:30am 18.6 W 9 14 1013.8 - 0.0 - - - - - - -
31/09:00am 18.2 WNW 13 18 1014.0 - 0.2 Fine Partly cloudy 40 - - - -
31/08:30am 17.3 NW 11 18 1013.9 - 0.2 - - - - - - -
31/08:00am 16.4 NNW 12 18 1013.5 - 0.2 - - - - - - -
31/07:30am 15.1 NNW 11 14 1013.2 - 0.2 - - - - - - -
31/07:00am 14.8 N 10 13 1013.1 - 0.2 - - - - - - -
31/06:30am 14.8 NNW 9 13 1012.8 - 0.2 - - - - - - -
31/06:00am 14.9 N 9 13 1012.6 - 0.2 - - - - - - -
31/05:30am 14.7 N 9 12 1012.7 - 0.2 - - - - - - -
31/05:00am 14.5 N 8 12 1012.8 - 0.2 - - - - - - -
31/04:30am 14.2 N 9 11 1012.7 - 0.2 - - - - - - -
31/04:00am 14.2 N 9 12 1012.7 - 0.2 - - - - - - -
31/03:30am 14.0 N 9 13 1012.9 - 0.2 - - - - - - -
31/03:00am 13.9 N 10 14 1013.1 - 0.2 - - - - - - -
31/02:30am 13.6 N 9 11 1013.2 - 0.2 - - - - - - -
31/02:00am 13.4 N 8 10 1013.4 - 0.2 - - - - - - -
31/01:30am 13.4 NNE 9 11 1013.6 - 0.2 - - - - - - -
31/01:00am 13.2 N 9 12 1014.0 - 0.2 - - - - - - -
31/12:30am 12.7 N 8 11 1014.5 - 0.2 - - - - - - -
31/12:00am 12.5 NNE 8 11 1014.8 - 0.2 - - - - - - -
 
Date/Time
WST
Temp
°C
Wind Pressure Rain since
9am
mm
Weather Cloud Vis
km
Sea
Height
m
Swell
Dir  Spd
kts
Gust
kts
hPa Trend Height
m
Period
s
Dir
30/11:30pm 12.3 NNE 7 9 1015.4 - 0.2 - - - - - - -
30/11:00pm 12.3 NNE 7 9 1015.5 - 0.2 - - - - - - -
30/10:30pm 12.4 NNE 7 9 1016.2 - 0.2 - - - - - - -
30/10:00pm 12.3 NNE 7 8 1016.4 - 0.2 - - - - - - -
30/09:30pm 12.4 NNE 7 9 1016.8 - 0.2 - - - - - - -
30/09:00pm 12.6 NE 7 9 1016.7 - 0.2 - - - - - - -
30/08:30pm 12.4 NE 6 8 1016.9 - 0.2 - - - - - - -
30/08:00pm 12.6 NE 6 7 1017.1 - 0.2 - - - - - - -
30/07:30pm 12.1 NNE 6 7 1017.0 - 0.2 - - - - - - -
30/07:00pm 12.5 NE 5 6 1016.7 - 0.2 - - - - - - -
30/06:30pm 13.4 NE 6 8 1016.2 - 0.2 - - - - - - -
30/06:00pm 13.3 NE 5 6 1016.2 - 0.2 - - - - - - -
30/05:30pm 14.1 NE 5 6 1016.1 - 0.2 - - - - - - -
30/05:00pm 14.8 ENE 4 5 1016.0 - 0.2 - - - - - - -
30/04:30pm 15.5 ESE 4 5 1015.8 - 0.2 - - - - - - -
30/04:00pm 16.0 SE 5 6 1015.9 - 0.2 - - - - - - -
30/03:30pm 16.5 SSE 6 8 1015.8 - 0.2 - - - - - - -
30/03:00pm 17.1 SSE 7 9 1015.7 - 0.2 Drizzle Partly cloudy 25 - - - -
30/02:30pm 16.5 S 5 7 1016.1 - 0.2 - - - - - - -
30/02:00pm 17.9 S 8 12 1015.9 - 0.0 - - - - - - -
30/01:30pm 18.1 SSW 8 12 1015.9 - 0.0 - - - - - - -
30/01:00pm 19.9 SSW 11 16 1015.4 - 0.0 - - - - - - -
30/12:30pm 21.2 SSW 11 17 1015.7 - 0.0 - - - - - - -
30/12:00pm 21.8 WSW 9 14 1015.8 - 0.0 - - - - - - -
30/11:30am 20.2 WSW 7 10 1016.2 - 0.0 - - - - - - -
30/11:00am 19.8 SW 9 16 1016.7 - 0.0 - - - - - - -
30/10:30am 20.7 NW 5 8 1016.4 - 0.0 - - - - - - -
30/10:00am 19.5 NW 7 9 1016.2 - 0.0 - - - - - - -
30/09:30am 18.2 W 8 15 1016.5 - 0.0 - - - - - - -
30/09:00am 20.0 WNW 8 13 1015.9 - 0.0 Fine Mostly cloudy 40 - - - -
30/08:30am 19.4 NW 7 11 1015.7 - 0.0 - - - - - - -
30/08:00am 18.8 WNW 8 12 1015.8 - 0.0 - - - - - - -
30/07:30am 19.1 NW 9 14 1015.1 - 0.0 - - - - - - -
30/07:00am 18.8 NW 12 17 1015.0 - 0.0 - - - - - - -
30/06:30am 17.9 NNW 11 16 1014.3 - 0.0 - - - - - - -
30/06:00am 17.9 NNW 13 19 1013.8 - 0.0 - - - - - - -
30/05:30am 17.9 NNW 14 18 1013.1 - 0.0 - - - - - - -
30/05:00am 17.7 NNW 14 17 1013.0 - 0.0 - - - - - - -
30/04:30am 18.1 NNW 14 20 1012.9 - 0.0 - - - - - - -
30/04:00am 17.5 NNW 13 18 1013.1 - 0.0 - - - - - - -
30/03:30am 17.3 NNW 13 19 1013.1 - 0.0 - - - - - - -
30/03:00am 16.9 NNW 13 16 1013.5 - 0.0 - - - - - - -
30/02:30am 17.3 NNW 12 16 1013.6 - 0.0 - - - - - - -
30/02:00am 18.0 NNW 12 17 1013.8 - 0.0 - - - - - - -
30/01:30am 18.0 N 11 16 1014.0 - 0.0 - - - - - - -
30/01:00am 18.1 N 10 14 1014.3 - 0.0 - - - - - - -
30/12:30am 18.7 N 10 14 1014.7 - 0.0 - - - - - - -
30/12:00am 19.0 N 10 15 1014.7 - 0.0 - - - - - - -
 
Date/Time
WST
Temp
°C
Wind Pressure Rain since
9am
mm
Weather Cloud Vis
km
Sea
Height
m
Swell
Dir  Spd
kts
Gust
kts
hPa Trend Height
m
Period
s
Dir
29/11:30pm 18.7 N 8 11 1014.9 - 0.0 - - - - - - -
29/11:00pm 19.2 N 9 12 1015.5 - 0.0 - - - - - - -
29/10:30pm 19.6 N 13 25 1015.8 - 0.0 - - - - - - -
29/10:00pm 18.1 N 8 10 1015.8 - 0.0 - - - - - - -
29/09:30pm 17.4 N 8 12 1015.9 - 0.0 - - - - - - -
29/09:00pm 17.2 N 8 11 1016.5 - 0.0 - - - - - - -
29/08:30pm 16.7 N 7 8 1016.8 - 0.0 - - - - - - -
29/08:00pm 16.6 N 7 8 1016.8 - 0.0 - - - - - - -
29/07:30pm 15.9 N 7 8 1016.8 - 0.0 - - - - - - -
29/07:00pm 15.6 N 6 8 1016.9 - 0.0 - - - - - - -
29/06:30pm 16.0 N 7 7 1016.6 - 0.0 - - - - - - -
29/06:00pm 16.0 NNE 6 7 1016.6 - 0.0 - - - - - - -
29/05:30pm 17.3 ENE 5 6 1016.4 - 0.0 - - - - - - -
29/05:00pm 17.9 E 4 5 1016.2 - 0.0 - - - - - - -
29/04:30pm 19.1 SE 5 6 1016.6 - 0.0 - - - - - - -
29/04:00pm 20.3 NNW 5 6 1016.6 - 0.0 - - - - - - -
29/03:30pm 24.4 NNW 7 10 1016.8 - 0.0 - - - - - - -
29/03:00pm 25.7 NW 10 16 1016.8 - 0.0 Fine Partly cloudy 40 - - - -
29/02:30pm 25.3 NW 10 15 1017.2 - 0.0 - - - - - - -
29/02:00pm 25.3 NW 11 16 1017.2 - 0.0 - - - - - - -
29/01:30pm 25.8 NNW 8 14 1017.6 - 0.0 - - - - - - -
29/01:00pm 25.9 NW 9 16 1018.0 - 0.0 - - - - - - -
29/12:30pm 24.7 NW 9 14 1018.6 - 0.0 - - - - - - -
29/12:00pm 24.8 NW 9 15 1019.1 - 0.0 - - - - - - -
29/11:30am 24.7 NNW 9 14 1019.7 - 0.0 - - - - - - -
29/11:00am 23.6 NNW 7 11 1020.3 - 0.0 - - - - - - -
29/10:30am 23.2 NNW 8 13 1020.9 - 0.0 - - - - - - -
29/10:00am 21.3 NNW 8 9 1021.4 - 0.0 - - - - - - -
29/09:30am 19.5 NNW 8 11 1021.8 - 0.0 - - - - - - -
29/09:00am 17.7 N 9 11 1021.9 - 0.0 Fine Mostly cloudy 40 - - - -
29/08:30am 15.9 N 7 10 1021.9 - 0.0 - - - - - - -
29/08:00am 14.6 NNW 7 10 1022.0 - 0.0 - - - - - - -
29/07:30am 11.7 N 7 9 1021.8 - 0.0 - - - - - - -
29/07:00am 9.3 N 8 10 1022.0 - 0.0 - - - - - - -
29/06:30am 8.3 N 7 9 1022.0 - 0.0 - - - - - - -
29/06:00am 8.5 N 8 9 1021.7 - 0.0 - - - - - - -
29/05:30am 8.8 N 8 11 1021.4 - 0.0 - - - - - - -
29/05:00am 9.0 N 8 9 1021.3 - 0.0 - - - - - - -
29/04:30am 9.4 N 8 10 1021.5 - 0.0 - - - - - - -
29/04:00am 8.7 N 7 8 1021.7 - 0.0 - - - - - - -
29/03:30am 8.8 N 6 7 1021.7 - 0.0 - - - - - - -
29/03:00am 9.7 N 7 8 1021.7 - 0.0 - - - - - - -
29/02:30am 10.3 N 7 8 1021.9 - 0.0 - - - - - - -
29/02:00am 10.6 N 6 8 1021.9 - 0.0 - - - - - - -
29/01:30am 11.0 N 7 9 1022.1 - 0.0 - - - - - - -
29/01:00am 11.3 N 8 10 1022.4 - 0.0 - - - - - - -
29/12:30am 10.9 N 8 13 1022.6 - 0.0 - - - - - - -
29/12:00am 9.8 N 7 9 1022.6 - 0.0 - - - - - - -
 
Date/Time
WST
Temp
°C
Wind Pressure Rain since
9am
mm
Weather Cloud Vis
km
Sea
Height
m
Swell
Dir  Spd
kts
Gust
kts
hPa Trend Height
m
Period
s
Dir
28/11:30pm 9.9 NNE 7 8 1022.8 - 0.0 - - - - - - -
28/11:00pm 9.8 NNE 6 7 1023.1 - 0.0 - - - - - - -
28/10:30pm 9.7 NNE 7 8 1023.2 - 0.0 - - - - - - -
28/10:00pm 9.9 NNE 6 7 1023.5 - 0.0 - - - - - - -
28/09:30pm 10.3 NNE 7 8 1023.8 - 0.0 - - - - - - -
28/09:00pm 10.5 NNE 7 9 1023.9 - 0.0 - - - - - - -
28/08:30pm 10.5 NE 6 8 1024.1 - 0.0 - - - - - - -
28/08:00pm 11.2 NE 6 8 1024.0 - 0.0 - - - - - - -
28/07:30pm 11.5 NE 7 10 1024.2 - 0.0 - - - - - - -
28/07:00pm 12.0 ENE 7 8 1024.2 - 0.0 - - - - - - -
28/06:30pm 12.5 ENE 6 9 1024.3 - 0.0 - - - - - - -
28/06:00pm 12.6 ENE 6 9 1024.5 - 0.0 - - - - - - -
28/05:30pm 13.2 ENE 7 9 1024.3 - 0.0 - - - - - - -
28/05:00pm 13.8 E 7 10 1024.1 - 0.0 - - - - - - -
28/04:30pm 15.0 ESE 7 9 1024.2 - 0.0 - - - - - - -
28/04:00pm 16.1 ESE 5 8 1023.8 - 0.0 - - - - - - -
28/03:30pm 17.0 SSW 4 7 1024.0 - 0.0 - - - - - - -

Other Formats:

Comma delimited format used in spreadsheet applications
http://www.bom.gov.au/fwo/IDW60701/IDW60701.94647.axf

JavaScript Object Notation format (JSON) in row-major order
http://www.bom.gov.au/fwo/IDW60701/IDW60701.94647.json